Time;durP1;ratioP1;P1;durP2;ratioP2;P2;SDS_P1;SDS_P2;PMS_P1;PMS_P2;Temp;Humidity;BMP_temperature;BMP_pressure;BME280_temperature;BME280_humidity;BME280_pressure;Samples;Min_cycle;Max_cycle;Signal;HPM_P1;HPM_P2
2023/08/14 00:01:14;;;;;;;26.17;13.45;;;15.00;99.90;;;;;;5055351;28;20049;-81
2023/08/14 00:03:40;;;;;;;26.07;13.20;;;15.00;99.90;;;;;;5056879;28;20103;-80
2023/08/14 00:06:05;;;;;;;24.40;13.32;;;15.00;99.90;;;;;;5057167;28;20049;-79
2023/08/14 00:08:31;;;;;;;28.23;14.05;;;15.00;99.90;;;;;;5057345;28;20507;-79
2023/08/14 00:10:57;;;;;;;25.50;13.68;;;15.00;99.90;;;;;;5056850;28;20048;-78
2023/08/14 00:13:23;;;;;;;25.95;13.00;;;14.90;99.90;;;;;;5056103;28;20047;-78
2023/08/14 00:15:50;;;;;;;24.77;13.15;;;14.90;99.90;;;;;;5056862;28;20041;-79
2023/08/14 00:18:16;;;;;;;25.30;12.30;;;14.90;99.90;;;;;;5057231;28;20409;-78
2023/08/14 00:20:43;;;;;;;27.88;13.57;;;14.90;99.90;;;;;;5057162;28;20048;-80
2023/08/14 00:23:08;;;;;;;26.02;13.00;;;14.90;99.90;;;;;;5056495;28;20049;-79
2023/08/14 00:25:34;;;;;;;27.90;12.98;;;14.90;99.90;;;;;;5056782;28;20047;-80
2023/08/14 00:28:00;;;;;;;26.23;13.18;;;15.00;99.90;;;;;;5088959;28;20049;-78
2023/08/14 00:30:25;;;;;;;26.80;12.10;;;14.90;99.90;;;;;;5056062;28;20053;-79
2023/08/14 00:32:51;;;;;;;25.85;12.43;;;14.90;99.90;;;;;;5054893;28;20087;-79
2023/08/14 00:35:17;;;;;;;24.80;12.75;;;14.90;99.90;;;;;;5054957;28;20377;-79
2023/08/14 00:37:47;;;;;;;24.77;12.25;;;14.90;99.90;;;;;;5037888;28;20077;-81
2023/08/14 00:40:15;;;;;;;24.67;11.65;;;14.90;99.90;;;;;;5056177;28;20045;-79
2023/08/14 00:42:43;;;;;;;23.98;12.48;;;14.90;99.90;;;;;;5054043;28;20132;-81
2023/08/14 00:45:09;;;;;;;30.38;13.10;;;14.80;99.90;;;;;;5054342;28;20081;-80
2023/08/14 00:47:36;;;;;;;28.52;13.18;;;14.80;99.90;;;;;;5054110;28;20132;-79
2023/08/14 00:50:07;;;;;;;29.27;12.85;;;14.80;99.90;;;;;;5037704;28;20397;-78
2023/08/14 00:52:36;;;;;;;33.22;13.38;;;14.90;99.90;;;;;;5054323;28;20049;-78
2023/08/14 00:55:07;;;;;;;28.25;12.95;;;14.90;99.90;;;;;;5054711;28;20482;-78
2023/08/14 00:57:34;;;;;;;26.63;13.05;;;14.90;99.90;;;;;;5054425;28;20045;-79
2023/08/14 01:00:05;;;;;;;27.50;13.20;;;14.90;99.90;;;;;;5053867;28;20044;-79
2023/08/14 01:02:31;;;;;;;28.55;13.00;;;14.90;99.90;;;;;;5054932;28;20386;-79
2023/08/14 01:04:56;;;;;;;28.95;12.82;;;14.90;99.90;;;;;;5054615;28;20041;-80
2023/08/14 01:07:24;;;;;;;30.70;13.43;;;14.80;99.90;;;;;;5054420;28;20120;-80
2023/08/14 01:09:50;;;;;;;31.02;13.30;;;14.80;99.90;;;;;;5086972;28;20060;-79
2023/08/14 01:12:20;;;;;;;28.17;13.55;;;14.80;99.90;;;;;;5054300;28;20055;-78
2023/08/14 01:14:49;;;;;;;30.52;12.95;;;14.80;99.90;;;;;;5055384;28;20393;-80
2023/08/14 01:17:17;;;;;;;32.05;14.15;;;14.80;99.90;;;;;;5054344;28;20052;-79
2023/08/14 01:19:48;;;;;;;28.98;13.45;;;14.80;99.90;;;;;;5053433;28;20044;-79
2023/08/14 01:22:38;;;;;;;32.50;14.13;;;14.70;99.90;;;;;;5088795;28;20103;-79
2023/08/14 01:25:30;;;;;;;33.35;13.02;;;14.70;99.90;;;;;;5057248;28;20057;-78
2023/08/14 01:27:56;;;;;;;29.95;13.60;;;14.80;99.90;;;;;;5055895;28;20048;-78
2023/08/14 01:30:22;;;;;;;29.08;13.13;;;14.70;99.90;;;;;;5056426;28;20124;-78
2023/08/14 01:32:51;;;;;;;26.77;12.85;;;14.80;99.90;;;;;;5055504;28;20445;-79
2023/08/14 01:35:19;;;;;;;27.02;12.70;;;14.80;99.90;;;;;;5036969;28;20045;-80
2023/08/14 01:37:58;;;;;;;28.45;13.10;;;14.80;99.90;;;;;;5054543;28;20045;-79
2023/08/14 01:41:01;;;;;;;27.08;12.00;;;14.80;99.90;;;;;;5053825;28;20045;-79
2023/08/14 01:43:36;;;;;;;25.88;12.18;;;14.90;99.90;;;;;;5052621;28;20078;-79
2023/08/14 01:46:04;;;;;;;28.50;12.55;;;14.90;99.90;;;;;;5086475;28;20051;-80
2023/08/14 01:48:31;;;;;;;31.15;12.55;;;14.90;99.90;;;;;;5052513;28;20378;-80
2023/08/14 01:50:58;;;;;;;30.05;12.82;;;14.90;99.90;;;;;;5052544;28;20465;-79
2023/08/14 01:53:24;;;;;;;28.45;12.93;;;14.80;99.90;;;;;;5054355;28;20377;-80
2023/08/14 01:55:50;;;;;;;29.38;12.23;;;14.80;99.90;;;;;;5054112;28;20045;-79
2023/08/14 01:58:15;;;;;;;29.15;13.27;;;14.80;99.90;;;;;;5052692;28;20495;-78
2023/08/14 02:00:41;;;;;;;31.88;12.75;;;14.80;99.90;;;;;;5053980;28;20132;-80
2023/08/14 02:03:07;;;;;;;32.63;13.57;;;14.80;99.90;;;;;;5053878;28;20045;-79
2023/08/14 02:05:32;;;;;;;26.25;13.15;;;14.80;99.90;;;;;;5053086;28;20483;-78
2023/08/14 02:07:58;;;;;;;28.80;12.27;;;14.70;99.90;;;;;;5052899;28;20131;-79
2023/08/14 02:10:24;;;;;;;27.73;13.07;;;14.70;99.90;;;;;;5087161;28;20059;-78
2023/08/14 02:12:50;;;;;;;32.38;13.20;;;14.70;99.90;;;;;;5057347;28;20408;-79
2023/08/14 02:15:16;;;;;;;33.70;13.50;;;14.70;99.90;;;;;;5039385;28;20049;-79
2023/08/14 02:17:42;;;;;;;27.77;13.52;;;14.60;99.90;;;;;;5057617;28;20401;-79
2023/08/14 02:20:09;;;;;;;32.13;13.10;;;14.60;99.90;;;;;;5090277;28;20045;-79
2023/08/14 02:22:34;;;;;;;32.58;13.88;;;14.60;99.90;;;;;;5056651;28;20049;-79
2023/08/14 02:25:00;;;;;;;30.17;13.90;;;14.50;99.90;;;;;;5057851;28;20366;-79
2023/08/14 02:27:26;;;;;;;28.83;12.77;;;14.50;99.90;;;;;;5039869;28;20516;-79
2023/08/14 02:29:52;;;;;;;28.23;12.88;;;14.50;99.90;;;;;;5039610;28;20041;-79
2023/08/14 02:32:17;;;;;;;28.08;12.35;;;14.50;99.90;;;;;;5057253;28;20488;-78
2023/08/14 02:34:49;;;;;;;33.75;14.38;;;14.40;99.90;;;;;;5057207;28;20041;-78
2023/08/14 02:37:17;;;;;;;32.50;14.00;;;14.40;99.90;;;;;;5057163;28;20056;-80
2023/08/14 02:39:43;;;;;;;34.42;15.55;;;14.40;99.90;;;;;;5057117;28;20102;-79
2023/08/14 02:42:10;;;;;;;33.08;14.40;;;14.30;99.90;;;;;;5056852;28;20075;-80
2023/08/14 02:44:36;;;;;;;31.23;14.98;;;14.30;99.90;;;;;;5057108;28;20056;-79
2023/08/14 02:47:03;;;;;;;26.30;13.38;;;14.30;99.90;;;;;;5057369;28;20053;-79
2023/08/14 02:49:29;;;;;;;30.75;14.18;;;14.40;99.90;;;;;;5055979;28;20088;-79
2023/08/14 02:51:55;;;;;;;36.25;15.00;;;14.40;99.90;;;;;;5056744;28;20477;-79
2023/08/14 02:54:21;;;;;;;28.88;14.18;;;14.40;99.90;;;;;;5057711;28;20382;-79
2023/08/14 02:56:48;;;;;;;31.15;14.43;;;14.40;99.90;;;;;;5056690;28;20037;-79
2023/08/14 02:59:14;;;;;;;32.75;13.93;;;14.40;99.90;;;;;;5057179;28;20041;-79
2023/08/14 03:01:40;;;;;;;29.07;14.77;;;14.40;99.90;;;;;;5057515;28;20052;-80
2023/08/14 03:04:05;;;;;;;36.03;15.80;;;14.40;99.90;;;;;;5056577;28;20053;-80
2023/08/14 03:06:31;;;;;;;37.88;16.10;;;14.40;99.90;;;;;;5055566;28;20142;-78
2023/08/14 03:08:58;;;;;;;37.38;16.00;;;14.30;99.90;;;;;;5056818;28;20041;-79
2023/08/14 03:11:24;;;;;;;38.95;15.88;;;14.30;99.90;;;;;;5056646;28;20049;-79
2023/08/14 03:13:50;;;;;;;35.07;15.63;;;14.30;99.90;;;;;;5056358;28;20049;-79
2023/08/14 03:16:16;;;;;;;34.13;14.55;;;14.30;99.90;;;;;;5056378;28;20516;-81
2023/08/14 03:18:42;;;;;;;31.90;15.20;;;14.30;99.90;;;;;;5056254;28;20044;-80
2023/08/14 03:21:08;;;;;;;37.00;14.80;;;14.30;99.90;;;;;;5056952;28;20128;-81
2023/08/14 03:23:35;;;;;;;38.05;16.02;;;14.30;99.90;;;;;;5056141;28;20383;-79
2023/08/14 03:26:01;;;;;;;37.95;15.90;;;14.30;99.90;;;;;;5055126;28;20132;-80
2023/08/14 03:28:27;;;;;;;37.28;15.80;;;14.30;99.90;;;;;;5055267;28;20473;-80
2023/08/14 03:30:53;;;;;;;32.85;15.13;;;14.30;99.90;;;;;;5056877;28;20049;-81
2023/08/14 03:33:19;;;;;;;30.98;15.60;;;14.30;99.90;;;;;;5056520;28;20049;-78
2023/08/14 03:35:45;;;;;;;31.45;14.85;;;14.30;99.90;;;;;;5055297;28;20052;-79
2023/08/14 03:38:10;;;;;;;31.50;14.68;;;14.30;99.90;;;;;;5054686;28;20392;-77
2023/08/14 03:40:36;;;;;;;35.75;16.35;;;14.30;99.90;;;;;;5056474;28;20045;-78
2023/08/14 03:43:02;;;;;;;37.90;16.60;;;14.30;99.90;;;;;;5056749;28;20389;-79
2023/08/14 03:45:28;;;;;;;44.15;16.63;;;14.30;99.90;;;;;;5058957;28;20118;-79
2023/08/14 03:47:54;;;;;;;32.73;16.00;;;14.30;99.90;;;;;;5061170;28;20545;-80
2023/08/14 03:50:20;;;;;;;34.53;16.05;;;14.20;99.90;;;;;;5057847;28;20056;-79
2023/08/14 03:52:48;;;;;;;36.75;16.00;;;14.20;99.90;;;;;;5055075;28;20107;-80
2023/08/14 03:55:13;;;;;;;36.83;16.55;;;14.20;99.90;;;;;;5055821;28;20045;-80
2023/08/14 03:57:39;;;;;;;36.75;16.35;;;14.20;99.90;;;;;;5053879;28;20047;-79
2023/08/14 04:00:06;;;;;;;37.90;15.73;;;14.20;99.90;;;;;;5088062;28;20151;-79
2023/08/14 04:02:32;;;;;;;36.75;17.23;;;14.20;99.90;;;;;;5054425;28;20053;-80
2023/08/14 04:04:58;;;;;;;37.20;17.35;;;14.20;99.90;;;;;;5055364;28;20102;-81
2023/08/14 04:07:24;;;;;;;43.25;18.02;;;14.20;99.90;;;;;;5056366;28;20045;-80
2023/08/14 04:09:49;;;;;;;43.35;17.05;;;14.20;99.90;;;;;;5088184;28;20053;-81
2023/08/14 04:12:15;;;;;;;39.42;16.42;;;14.10;99.90;;;;;;5055309;28;20049;-81
2023/08/14 04:14:41;;;;;;;43.75;17.63;;;14.10;99.90;;;;;;5055606;28;20041;-80
2023/08/14 04:17:06;;;;;;;45.17;17.70;;;14.10;99.90;;;;;;5055633;28;20052;-82
2023/08/14 04:19:32;;;;;;;43.72;17.83;;;14.10;99.90;;;;;;5055033;28;20067;-81
2023/08/14 04:21:58;;;;;;;40.95;17.52;;;14.10;99.90;;;;;;5056268;28;20110;-80
2023/08/14 04:24:24;;;;;;;44.70;18.67;;;14.10;99.90;;;;;;5055668;28;20045;-81
2023/08/14 04:26:49;;;;;;;35.00;17.42;;;14.10;99.90;;;;;;5055319;28;20052;-81
2023/08/14 04:29:16;;;;;;;42.88;17.75;;;14.10;99.90;;;;;;5055255;28;20047;-81
2023/08/14 04:31:42;;;;;;;39.60;16.77;;;14.10;99.90;;;;;;5055765;28;20354;-81
2023/08/14 04:34:08;;;;;;;50.63;18.83;;;14.10;99.90;;;;;;5053365;28;20079;-81
2023/08/14 04:36:35;;;;;;;35.92;17.35;;;14.10;99.90;;;;;;5070622;28;20091;-80
2023/08/14 04:39:01;;;;;;;42.17;17.15;;;14.10;99.90;;;;;;5054852;28;20516;-82
2023/08/14 04:41:27;;;;;;;43.95;17.85;;;14.20;99.90;;;;;;5055579;28;20056;-82
2023/08/14 04:43:53;;;;;;;38.45;18.10;;;14.20;99.90;;;;;;5055533;28;20052;-81
2023/08/14 04:46:32;;;;;;;46.03;17.60;;;14.30;99.90;;;;;;5054120;28;20370;-82
2023/08/14 04:48:59;;;;;;;43.67;18.17;;;14.40;99.90;;;;;;5055551;28;20048;-81
2023/08/14 04:51:25;;;;;;;37.33;16.80;;;14.40;99.90;;;;;;5055005;28;20092;-81
2023/08/14 04:53:51;;;;;;;39.53;17.70;;;14.40;99.90;;;;;;5054954;28;20088;-82
2023/08/14 04:56:17;;;;;;;37.33;17.20;;;14.50;99.90;;;;;;5087003;28;20057;-82
2023/08/14 04:58:44;;;;;;;36.35;16.80;;;14.60;99.90;;;;;;5053288;28;20481;-81
2023/08/14 05:01:10;;;;;;;;;;;14.70;99.90;;;;;;5053767;28;20568;-81
2023/08/14 05:03:35;;;;;;;37.60;16.70;;;14.70;99.90;;;;;;5053454;28;20007;-82
2023/08/14 05:06:01;;;;;;;44.47;17.00;;;14.70;99.90;;;;;;5053276;28;20103;-82
2023/08/14 05:08:27;;;;;;;41.97;17.23;;;14.80;99.90;;;;;;5053231;28;20041;-81
2023/08/14 05:10:54;;;;;;;34.83;16.45;;;14.80;99.90;;;;;;5053496;28;20052;-80
2023/08/14 05:13:20;;;;;;;38.88;18.30;;;14.90;99.90;;;;;;5054312;28;20044;-81
2023/08/14 05:15:47;;;;;;;44.27;17.43;;;15.00;99.90;;;;;;5054262;28;20106;-81
2023/08/14 05:18:14;;;;;;;35.13;17.63;;;15.10;99.90;;;;;;5054373;28;20041;-82
2023/08/14 05:20:43;;;;;;;37.63;17.58;;;15.20;99.90;;;;;;5070558;28;20064;-80
2023/08/14 05:23:09;;;;;;;37.03;16.75;;;15.30;99.90;;;;;;5054920;28;20048;-80
2023/08/14 05:25:35;;;;;;;40.60;16.73;;;15.40;99.90;;;;;;5054792;28;20053;-79
2023/08/14 05:28:01;;;;;;;42.65;16.85;;;15.50;99.90;;;;;;5054844;28;20049;-82
2023/08/14 05:30:27;;;;;;;36.03;16.38;;;15.60;99.90;;;;;;5070762;28;20051;-81
2023/08/14 05:32:52;;;;;;;36.42;16.75;;;15.70;99.90;;;;;;5053387;28;20409;-82
2023/08/14 05:35:23;;;;;;;34.15;15.75;;;15.80;99.90;;;;;;5053884;28;20048;-82
2023/08/14 05:37:52;;;;;;;34.85;17.08;;;15.90;99.90;;;;;;5053762;28;20051;-83
2023/08/14 05:40:21;;;;;;;43.22;18.10;;;15.90;99.90;;;;;;5054404;28;20055;-82
2023/08/14 05:43:09;;;;;;;37.10;16.75;;;16.00;99.90;;;;;;5036228;28;20071;-81
2023/08/14 05:45:37;;;;;;;37.30;17.27;;;16.10;99.90;;;;;;5052417;28;20041;-80
2023/08/14 05:48:04;;;;;;;37.35;17.90;;;16.20;99.90;;;;;;5086177;28;20049;-82
2023/08/14 05:50:33;;;;;;;39.55;17.95;;;16.20;99.90;;;;;;5053345;28;20083;-81
2023/08/14 05:53:07;;;;;;;39.60;19.27;;;16.30;99.90;;;;;;5053160;28;20057;-80
2023/08/14 05:55:38;;;;;;;40.03;18.02;;;16.30;99.90;;;;;;5055609;28;20056;-81
2023/08/14 05:58:05;;;;;;;40.63;18.02;;;16.30;99.90;;;;;;5055212;28;20080;-79
2023/08/14 06:00:36;;;;;;;39.88;17.70;;;16.40;99.90;;;;;;5054476;28;20052;-80
2023/08/14 06:03:02;;;;;;;43.33;17.33;;;16.50;99.90;;;;;;5056326;28;20138;-79
2023/08/14 06:05:28;;;;;;;39.38;17.70;;;16.60;99.90;;;;;;5091603;28;20045;-79
2023/08/14 06:07:55;;;;;;;39.22;17.08;;;16.60;99.90;;;;;;5061893;28;20150;-80
2023/08/14 06:10:21;;;;;;;40.08;17.08;;;16.70;99.90;;;;;;5092312;28;20073;-80
2023/08/14 06:12:50;;;;;;;37.72;17.42;;;16.80;99.90;;;;;;5073032;28;20037;-79
2023/08/14 06:15:18;;;;;;;39.95;18.45;;;16.90;99.90;;;;;;5086182;28;20416;-80
2023/08/14 06:17:44;;;;;;;37.70;17.92;;;16.90;99.90;;;;;;5052248;28;20049;-80
2023/08/14 06:20:11;;;;;;;39.33;18.07;;;17.00;99.90;;;;;;5052374;28;20136;-79
2023/08/14 06:22:44;;;;;;;35.28;17.73;;;17.10;99.90;;;;;;5053038;28;20283;-79
2023/08/14 06:25:13;;;;;;;42.67;18.13;;;17.10;99.90;;;;;;5053820;28;20366;-80
2023/08/14 06:27:40;;;;;;;43.70;18.35;;;17.20;99.90;;;;;;5053188;28;20049;-80
2023/08/14 06:30:10;;;;;;;34.35;17.42;;;17.20;99.90;;;;;;5053558;28;20493;-80
2023/08/14 06:32:37;;;;;;;38.08;18.40;;;17.30;99.90;;;;;;5052221;28;20138;-79
2023/08/14 06:35:04;;;;;;;39.67;17.75;;;17.30;99.90;;;;;;5053536;28;20045;-79
2023/08/14 06:37:30;;;;;;;46.15;18.73;;;17.40;99.90;;;;;;5052963;28;20052;-80
2023/08/14 06:39:56;;;;;;;40.45;19.23;;;17.50;99.90;;;;;;5051787;28;20545;-78
2023/08/14 06:42:21;;;;;;;37.63;17.73;;;17.50;99.90;;;;;;5051799;28;20167;-79
2023/08/14 06:44:47;;;;;;;38.10;18.47;;;17.50;99.90;;;;;;5053251;28;20091;-81
2023/08/14 06:47:13;;;;;;;37.30;17.63;;;17.60;99.90;;;;;;5053058;28;20064;-79
2023/08/14 06:49:39;;;;;;;32.47;17.70;;;17.60;99.90;;;;;;5053059;28;20497;-79
2023/08/14 06:52:05;;;;;;;34.60;17.87;;;17.60;99.90;;;;;;5052805;28;20096;-80
2023/08/14 06:54:31;;;;;;;41.67;18.20;;;17.70;99.90;;;;;;5053039;28;20084;-78
2023/08/14 06:56:57;;;;;;;38.90;17.75;;;17.70;99.90;;;;;;5053519;28;20376;-79
2023/08/14 06:59:22;;;;;;;39.37;17.43;;;17.70;99.90;;;;;;5089362;28;20040;-79
2023/08/14 07:01:48;;;;;;;36.67;18.17;;;17.70;99.90;;;;;;5088957;28;20087;-78
2023/08/14 07:04:14;;;;;;;34.07;17.17;;;17.80;99.90;;;;;;5056775;28;20081;-78
2023/08/14 07:06:40;;;;;;;37.53;18.20;;;17.80;99.90;;;;;;5055529;28;20044;-77
2023/08/14 07:09:05;;;;;;;38.77;17.03;;;17.90;99.90;;;;;;5055171;28;20060;-79
2023/08/14 07:11:36;;;;;;;36.07;17.73;;;17.90;99.90;;;;;;5056724;28;20127;-80
2023/08/14 07:14:03;;;;;;;45.28;17.80;;;17.90;99.90;;;;;;5056534;28;20051;-78
2023/08/14 07:16:29;;;;;;;34.63;17.15;;;18.10;99.90;;;;;;5055294;28;20049;-77
2023/08/14 07:18:54;;;;;;;39.83;17.17;;;18.10;99.90;;;;;;5088507;28;20439;-77
2023/08/14 07:21:20;;;;;;;34.47;17.60;;;18.20;99.90;;;;;;5056267;28;20044;-78
2023/08/14 07:23:46;;;;;;;34.87;17.17;;;18.30;99.90;;;;;;5056099;28;20052;-77
2023/08/14 07:26:11;;;;;;;37.53;17.03;;;18.40;99.90;;;;;;5088690;28;20473;-77
2023/08/14 07:28:40;;;;;;;35.40;16.10;;;18.50;99.90;;;;;;5056413;28;20056;-77
2023/08/14 07:31:07;;;;;;;35.15;16.77;;;18.70;99.90;;;;;;5054822;28;20194;-76
2023/08/14 07:33:34;;;;;;;31.52;15.40;;;18.90;99.90;;;;;;5055936;28;20045;-77
2023/08/14 07:36:00;;;;;;;31.35;16.20;;;19.20;99.90;;;;;;5055729;28;20044;-75
2023/08/14 07:38:26;;;;;;;27.60;14.30;;;19.40;99.90;;;;;;5056624;28;20136;-78
2023/08/14 07:40:53;;;;;;;26.00;12.90;;;19.70;99.90;;;;;;5056600;28;20140;-78
2023/08/14 07:43:19;;;;;;;30.05;13.20;;;19.80;99.90;;;;;;5056206;28;20052;-76
2023/08/14 07:45:45;;;;;;;33.37;13.70;;;20.00;99.90;;;;;;5054959;28;20474;-76
2023/08/14 07:48:11;;;;;;;26.67;12.53;;;20.10;99.90;;;;;;5054483;28;20052;-76
2023/08/14 07:50:37;;;;;;;25.10;11.95;;;20.20;99.90;;;;;;5087786;28;20048;-79
2023/08/14 07:53:04;;;;;;;23.17;11.20;;;20.40;99.90;;;;;;5054420;28;20056;-78
2023/08/14 07:55:29;;;;;;;28.02;10.32;;;20.40;99.90;;;;;;5088799;28;20530;-76
2023/08/14 07:57:55;;;;;;;25.23;10.37;;;20.50;99.90;;;;;;5055666;28;20049;-76
2023/08/14 08:00:21;;;;;;;30.93;13.43;;;20.70;99.90;;;;;;5054550;28;20085;-77
2023/08/14 08:02:47;;;;;;;23.07;10.87;;;20.80;99.90;;;;;;5054342;28;20045;-77
2023/08/14 08:05:13;;;;;;;22.40;10.23;;;20.90;99.90;;;;;;5055374;28;20291;-76
2023/08/14 08:07:39;;;;;;;22.75;9.88;;;21.00;99.90;;;;;;5054628;28;20081;-76
2023/08/14 08:10:05;;;;;;;23.60;9.93;;;21.00;99.90;;;;;;5054397;28;20118;-75
2023/08/14 08:12:31;;;;;;;25.23;9.70;;;21.00;99.90;;;;;;5055003;28;20045;-76
2023/08/14 08:14:57;;;;;;;23.77;9.47;;;21.00;99.90;;;;;;5055341;28;20176;-78
2023/08/14 08:17:23;;;;;;;23.90;9.70;;;21.10;99.90;;;;;;5055471;28;20290;-77
2023/08/14 08:19:48;;;;;;;21.97;8.90;;;21.00;99.90;;;;;;5037310;28;20389;-77
2023/08/14 08:22:14;;;;;;;23.40;7.97;;;21.10;99.90;;;;;;5038230;28;20106;-77
2023/08/14 08:24:40;;;;;;;19.10;8.00;;;21.20;99.90;;;;;;5055631;28;20053;-76
2023/08/14 08:27:06;;;;;;;19.33;7.70;;;21.30;99.90;;;;;;5054450;28;20053;-75
2023/08/14 08:29:31;;;;;;;18.97;8.17;;;21.40;99.90;;;;;;5056737;28;20106;-77
2023/08/14 08:31:57;;;;;;;17.97;7.50;;;21.40;99.90;;;;;;5038132;28;20389;-77
2023/08/14 08:34:23;;;;;;;18.80;7.53;;;21.50;99.90;;;;;;5055481;28;20405;-76
2023/08/14 08:36:48;;;;;;;20.30;7.17;;;21.50;99.90;;;;;;5055278;28;20045;-76
2023/08/14 08:39:14;;;;;;;16.50;6.90;;;21.40;99.90;;;;;;5054680;28;20044;-77
2023/08/14 08:41:46;;;;;;;20.63;6.67;;;21.60;99.90;;;;;;5037392;28;20041;-77
2023/08/14 08:44:21;;;;;;;18.98;7.32;;;21.80;99.90;;;;;;5054188;28;20053;-75
2023/08/14 08:46:52;;;;;;;16.90;7.03;;;22.00;99.90;;;;;;5054584;28;20091;-75
2023/08/14 08:49:17;;;;;;;19.60;6.40;;;22.20;99.90;;;;;;5054305;28;20057;-75
2023/08/14 08:51:44;;;;;;;28.57;6.67;;;22.40;99.90;;;;;;5054285;28;20202;-76
2023/08/14 08:54:14;;;;;;;18.98;6.70;;;22.60;99.90;;;;;;5055156;28;20053;-77
2023/08/14 08:56:40;;;;;;;15.90;6.45;;;22.70;99.90;;;;;;5036831;28;20071;-75
2023/08/14 08:59:07;;;;;;;15.23;6.32;;;22.80;99.90;;;;;;5053205;28;20045;-76
2023/08/14 09:01:33;;;;;;;20.95;6.90;;;22.70;99.90;;;;;;5037024;28;20166;-74
2023/08/14 09:04:00;;;;;;;22.87;6.17;;;22.60;99.90;;;;;;5036723;28;20442;-76
2023/08/14 09:06:25;;;;;;;21.27;5.82;;;22.60;99.90;;;;;;5052920;28;20435;-74
2023/08/14 09:08:51;;;;;;;16.33;5.97;;;22.40;99.90;;;;;;5052938;28;20044;-76
2023/08/14 09:11:17;;;;;;;16.80;6.00;;;22.50;99.90;;;;;;5053325;28;20048;-75
2023/08/14 09:13:43;;;;;;;26.25;5.85;;;22.50;99.90;;;;;;5053336;28;20429;-76
2023/08/14 09:16:13;;;;;;;16.67;5.80;;;22.50;99.90;;;;;;5054026;28;20103;-75
2023/08/14 09:18:39;;;;;;;21.85;5.60;;;22.40;99.90;;;;;;5053976;28;20033;-75
2023/08/14 09:21:05;;;;;;;15.47;5.73;;;22.50;99.90;;;;;;5054784;28;20111;-75
2023/08/14 09:23:34;;;;;;;21.23;6.40;;;22.50;99.90;;;;;;5053260;28;20120;-76
2023/08/14 09:26:00;;;;;;;14.57;5.28;;;22.50;99.90;;;;;;5052692;28;20053;-72
2023/08/14 09:28:27;;;;;;;16.30;5.35;;;22.60;99.90;;;;;;5053705;28;20049;-74
2023/08/14 09:30:52;;;;;;;20.58;6.50;;;22.50;99.90;;;;;;5052858;28;20080;-72
2023/08/14 09:33:19;;;;;;;19.97;6.87;;;22.50;99.90;;;;;;5053668;28;20080;-76
2023/08/14 09:35:53;;;;;;;20.83;6.43;;;22.40;99.90;;;;;;5053749;28;20340;-74
2023/08/14 09:38:19;;;;;;;17.58;6.15;;;22.40;99.90;;;;;;5053895;28;20561;-76
2023/08/14 09:40:44;;;;;;;17.87;6.27;;;22.40;99.90;;;;;;5052826;28;20128;-77
2023/08/14 09:43:12;;;;;;;18.67;6.20;;;22.40;99.90;;;;;;5053780;28;20090;-75
2023/08/14 09:45:38;;;;;;;19.77;6.18;;;22.50;99.90;;;;;;5036277;28;20102;-74
2023/08/14 09:48:04;;;;;;;14.60;5.47;;;22.50;99.90;;;;;;5053390;28;20045;-74
2023/08/14 09:50:31;;;;;;;16.52;5.22;;;22.60;99.90;;;;;;5052288;28;20055;-75
2023/08/14 09:52:58;;;;;;;16.33;4.75;;;22.60;99.90;;;;;;5053439;28;20061;-76
2023/08/14 09:55:28;;;;;;;15.32;5.20;;;22.60;99.90;;;;;;5053682;28;20451;-74
2023/08/14 09:57:57;;;;;;;18.88;5.25;;;22.70;99.90;;;;;;5053427;28;20098;-76
2023/08/14 10:00:28;;;;;;;19.35;5.00;;;22.70;99.90;;;;;;5053386;28;20047;-75
2023/08/14 10:02:55;;;;;;;20.35;5.80;;;22.70;99.90;;;;;;5053543;28;20091;-75
2023/08/14 10:05:23;;;;;;;15.77;4.90;;;22.70;99.90;;;;;;5052332;28;20048;-76
2023/08/14 10:07:49;;;;;;;11.43;3.40;;;22.80;99.90;;;;;;5053349;28;20071;-77
2023/08/14 10:10:15;;;;;;;11.57;3.28;;;22.90;99.90;;;;;;5035830;28;20087;-75
2023/08/14 10:13:04;;;;;;;11.73;3.53;;;22.90;99.90;;;;;;5068729;28;20045;-74
2023/08/14 10:15:34;;;;;;;16.25;4.50;;;23.00;99.90;;;;;;5053251;28;20052;-75
2023/08/14 10:18:12;;;;;;;11.48;4.03;;;23.00;99.90;;;;;;5053347;28;20056;-76
2023/08/14 10:20:40;;;;;;;13.27;3.28;;;23.10;99.90;;;;;;5052381;28;20056;-75
2023/08/14 10:23:08;;;;;;;13.90;3.22;;;23.00;99.90;;;;;;5053409;28;20072;-74
2023/08/14 10:25:38;;;;;;;10.68;3.10;;;23.10;99.90;;;;;;5052326;28;20507;-75
2023/08/14 10:28:07;;;;;;;12.82;3.30;;;23.10;99.90;;;;;;5052050;28;20505;-75
2023/08/14 10:30:34;;;;;;;9.35;3.22;;;23.10;99.90;;;;;;5053918;28;20041;-75
2023/08/14 10:33:02;;;;;;;19.73;4.05;;;23.20;99.90;;;;;;5057093;28;20047;-75
2023/08/14 10:35:28;;;;;;;14.38;3.40;;;23.30;99.90;;;;;;5057546;28;20049;-73
2023/08/14 10:37:54;;;;;;;13.07;3.30;;;23.40;99.90;;;;;;5055723;28;20102;-74
2023/08/14 10:40:23;;;;;;;13.23;3.90;;;23.50;99.90;;;;;;5055860;28;20083;-75
2023/08/14 10:42:57;;;;;;;14.00;3.67;;;23.70;99.90;;;;;;5056004;28;20048;-75
2023/08/14 10:45:28;;;;;;;13.75;3.65;;;23.80;99.90;;;;;;5057714;28;20113;-73
2023/08/14 10:48:09;;;;;;;15.95;3.47;;;23.90;99.90;;;;;;5040205;28;20389;-74
2023/08/14 10:50:34;;;;;;;19.45;4.13;;;24.00;99.90;;;;;;5056864;28;20057;-75
2023/08/14 10:53:03;;;;;;;14.73;4.33;;;24.00;99.90;;;;;;5058247;28;20056;-74
2023/08/14 10:55:46;;;;;;;14.35;4.25;;;24.10;99.90;;;;;;5056254;28;20045;-73
2023/08/14 10:58:31;;;;;;;12.23;3.80;;;24.10;99.90;;;;;;5089345;28;20131;-75
2023/08/14 11:00:58;;;;;;;16.98;4.30;;;24.30;99.90;;;;;;5056468;28;20057;-76
2023/08/14 11:03:24;;;;;;;17.10;4.32;;;24.40;99.90;;;;;;5056644;28;20044;-74
2023/08/14 11:05:50;;;;;;;17.23;4.78;;;24.70;99.90;;;;;;5056246;28;20041;-75
2023/08/14 11:08:17;;;;;;;19.90;4.30;;;24.80;99.90;;;;;;5056627;28;20052;-75
2023/08/14 11:10:44;;;;;;;13.43;4.40;;;24.90;99.90;;;;;;5055151;28;20084;-74
2023/08/14 11:13:11;;;;;;;18.45;4.00;;;25.10;99.90;;;;;;5038402;28;20053;-74
2023/08/14 11:15:38;;;;;;;16.17;4.72;;;25.20;99.90;;;;;;5055462;28;20071;-73
2023/08/14 11:18:05;;;;;;;14.18;4.18;;;25.10;99.90;;;;;;5055959;28;20128;-74
2023/08/14 11:20:32;;;;;;;10.68;4.10;;;24.90;99.90;;;;;;5056448;28;20066;-73
2023/08/14 11:23:01;;;;;;;;;;;24.80;99.90;;;;;;5057430;28;20049;-74
2023/08/14 11:25:27;;;;;;;16.92;4.10;;;25.00;99.90;;;;;;5054931;28;19921;-73
2023/08/14 11:27:54;;;;;;;13.88;4.35;;;25.20;99.90;;;;;;5056069;28;20053;-72
2023/08/14 11:30:22;;;;;;;16.08;4.43;;;25.40;99.90;;;;;;5055227;28;20127;-72
2023/08/14 11:32:50;;;;;;;24.20;4.50;;;25.10;99.90;;;;;;5056288;28;20055;-73
2023/08/14 11:35:16;;;;;;;14.55;4.20;;;24.90;99.90;;;;;;5055019;28;20044;-74
2023/08/14 11:37:42;;;;;;;;;;;24.70;99.90;;;;;;5055294;28;20049;-74
2023/08/14 11:40:10;;;;;;;14.60;3.88;;;24.90;99.90;;;;;;5055887;28;19927;-73
2023/08/14 11:42:38;;;;;;;19.42;4.40;;;25.00;99.90;;;;;;5054703;28;20132;-74
2023/08/14 11:45:05;;;;;;;16.67;4.00;;;25.10;99.90;;;;;;5054747;28;20049;-74
2023/08/14 11:47:47;;;;;;;15.40;4.22;;;25.30;99.90;;;;;;5055569;28;20369;-73
2023/08/14 11:50:14;;;;;;;13.20;4.35;;;25.40;99.90;;;;;;5055051;28;20469;-74
2023/08/14 11:52:42;;;;;;;17.70;4.07;;;25.30;99.90;;;;;;5054104;28;20479;-73
2023/08/14 11:55:08;;;;;;;16.10;4.35;;;25.20;99.90;;;;;;5055480;28;20481;-74
2023/08/14 11:57:35;;;;;;;;;;;25.20;99.90;;;;;;5055863;28;20402;-73
2023/08/14 12:00:06;;;;;;;15.32;3.90;;;25.20;99.90;;;;;;5055417;28;19929;-71
2023/08/14 12:02:37;;;;;;;15.52;4.15;;;25.30;99.90;;;;;;5038715;28;20353;-75
2023/08/14 12:05:03;;;;;;;12.07;4.03;;;25.50;99.90;;;;;;5055359;28;20095;-72
2023/08/14 12:07:29;;;;;;;11.27;3.78;;;25.60;99.90;;;;;;5055950;28;20103;-74
2023/08/14 12:09:56;;;;;;;16.23;4.57;;;25.60;99.90;;;;;;5054019;28;20063;-74
2023/08/14 12:12:41;;;;;;;14.40;3.95;;;25.50;99.90;;;;;;5054983;28;20045;-74
2023/08/14 12:15:10;;;;;;;11.85;3.53;;;25.50;99.90;;;;;;5043468;28;20057;-75
2023/08/14 12:17:37;;;;;;;14.50;4.38;;;25.40;99.90;;;;;;5055031;28;20052;-73
2023/08/14 12:20:06;;;;;;;14.15;3.55;;;25.40;99.90;;;;;;5055050;28;20037;-73
2023/08/14 12:22:38;;;;;;;11.23;3.85;;;25.60;99.90;;;;;;5054779;28;20055;-73
2023/08/14 12:25:08;;;;;;;13.32;4.05;;;25.60;99.90;;;;;;5037363;28;20519;-74
2023/08/14 12:27:34;;;;;;;13.30;3.60;;;25.70;99.90;;;;;;5037350;28;20057;-73
2023/08/14 12:30:00;;;;;;;16.00;4.28;;;26.00;99.90;;;;;;5055390;28;20045;-74
2023/08/14 12:32:26;;;;;;;13.85;4.03;;;26.30;99.90;;;;;;5037567;28;20057;-74